createdAt,value
2018-10-09T00:00:51.765Z,6.60
2018-10-09T00:01:51.721Z,6.59
2018-10-09T00:02:51.713Z,6.63
2018-10-09T00:03:51.710Z,6.59
2018-10-09T00:04:51.694Z,6.60
2018-10-09T00:05:51.682Z,6.49
2018-10-09T00:06:51.683Z,6.52
2018-10-09T00:07:51.668Z,6.60
2018-10-09T00:08:51.676Z,6.46
2018-10-09T00:09:51.659Z,6.48
2018-10-09T00:10:51.659Z,6.48
2018-10-09T00:11:51.643Z,6.52
2018-10-09T00:12:51.636Z,6.57
2018-10-09T00:13:51.629Z,6.59
2018-10-09T00:14:51.636Z,6.63
2018-10-09T00:15:51.616Z,6.59
2018-10-09T00:16:51.611Z,6.54
2018-10-09T00:17:51.605Z,6.56
2018-10-09T00:18:51.608Z,6.57
2018-10-09T00:19:51.588Z,6.51
2018-10-09T00:20:51.579Z,6.59
2018-10-09T00:21:51.577Z,6.59
2018-10-09T00:22:51.570Z,6.51
2018-10-09T00:23:51.563Z,6.46
2018-10-09T00:24:51.558Z,6.52
2018-10-09T00:25:51.603Z,6.48
2018-10-09T00:26:51.543Z,6.59
2018-10-09T00:27:51.535Z,6.52
2018-10-09T00:28:51.529Z,6.60
2018-10-09T00:29:51.529Z,6.52
2018-10-09T00:30:51.517Z,6.51
2018-10-09T00:31:51.580Z,6.49
2018-10-09T00:32:51.503Z,6.42
2018-10-09T00:33:51.502Z,6.52
2018-10-09T00:34:51.488Z,6.46
2018-10-09T00:35:51.481Z,6.46
2018-10-09T00:36:51.474Z,6.42
2018-10-09T00:37:51.469Z,6.49
2018-10-09T00:38:51.455Z,6.46
2018-10-09T00:39:51.458Z,6.44
2018-10-09T00:40:51.447Z,6.42
2018-10-09T00:41:51.443Z,6.36
2018-10-09T00:42:51.429Z,6.46
2018-10-09T00:43:51.429Z,6.39
2018-10-09T00:44:51.425Z,6.44
2018-10-09T00:45:51.413Z,6.31
2018-10-09T00:46:51.407Z,6.31
2018-10-09T00:47:51.402Z,6.39
2018-10-09T00:48:51.975Z,6.35
2018-10-09T00:49:51.388Z,6.33
2018-10-09T00:50:51.376Z,6.46
2018-10-09T00:51:51.369Z,6.44
2018-10-09T00:52:51.364Z,6.54
2018-10-09T00:53:51.356Z,6.48
2018-10-09T00:54:51.351Z,6.52
2018-10-09T00:55:51.347Z,6.52
2018-10-09T00:56:51.334Z,6.52
2018-10-09T00:57:51.327Z,6.49
2018-10-09T00:58:51.319Z,6.49
2018-10-09T00:59:51.318Z,6.45
2018-10-09T01:00:51.306Z,6.35
2018-10-09T01:01:51.303Z,6.51
2018-10-09T01:02:51.292Z,6.31
2018-10-09T01:03:51.290Z,6.44
2018-10-09T01:04:51.277Z,6.49
2018-10-09T01:05:51.277Z,6.36
2018-10-09T01:06:51.265Z,6.39
2018-10-09T01:07:51.264Z,6.35
2018-10-09T01:08:51.254Z,6.36
2018-10-09T01:09:51.245Z,6.35
2018-10-09T01:10:51.239Z,6.31
2018-10-09T01:11:51.231Z,6.36
2018-10-09T01:12:51.274Z,6.35
2018-10-09T01:13:51.213Z,6.33
2018-10-09T01:14:51.218Z,6.38
2018-10-09T01:15:51.205Z,6.46
2018-10-09T01:16:51.285Z,6.54
2018-10-09T01:17:51.190Z,6.54
2018-10-09T01:18:51.186Z,6.54
2018-10-09T01:19:51.169Z,6.59
2018-10-09T01:20:51.172Z,6.57
2018-10-09T01:21:51.165Z,6.54
2018-10-09T01:22:51.157Z,6.48
2018-10-09T01:23:51.149Z,6.52
2018-10-09T01:24:51.139Z,6.51
2018-10-09T01:25:51.139Z,6.36
2018-10-09T01:26:51.120Z,6.35
2018-10-09T01:27:51.120Z,6.33
2018-10-09T01:28:51.117Z,6.31
2018-10-09T01:29:51.114Z,6.35
2018-10-09T01:30:51.099Z,6.31
2018-10-09T01:31:51.091Z,6.33
2018-10-09T01:32:51.084Z,6.31
2018-10-09T01:33:51.078Z,6.36
2018-10-09T01:34:51.068Z,6.36
2018-10-09T01:35:51.068Z,6.31
2018-10-09T01:36:51.056Z,6.27
2018-10-09T01:37:51.049Z,6.24
2018-10-09T01:38:51.041Z,6.27
2018-10-09T01:39:51.036Z,6.20
2018-10-09T01:40:51.032Z,6.22
2018-10-09T01:41:51.020Z,6.24
2018-10-09T01:42:51.008Z,6.28
2018-10-09T01:43:51.007Z,6.22
2018-10-09T01:44:51.000Z,6.26
2018-10-09T01:45:50.991Z,6.24
2018-10-09T01:46:50.989Z,6.19
2018-10-09T01:47:50.996Z,6.20
2018-10-09T01:48:50.973Z,6.27
2018-10-09T01:49:50.958Z,6.31
2018-10-09T01:50:50.961Z,6.20
2018-10-09T01:51:50.954Z,6.26
2018-10-09T01:52:50.940Z,6.22
2018-10-09T01:53:50.936Z,6.24
2018-10-09T01:54:50.926Z,6.19
2018-10-09T01:55:50.922Z,6.17
2018-10-09T01:56:50.911Z,6.16
2018-10-09T01:57:50.904Z,6.20
2018-10-09T01:58:50.898Z,6.20
2018-10-09T01:59:50.897Z,6.22
2018-10-09T02:00:50.885Z,6.16
2018-10-09T02:01:50.878Z,6.20
2018-10-09T02:02:50.871Z,6.16
2018-10-09T02:03:50.878Z,6.24
2018-10-09T02:04:50.856Z,6.09
2018-10-09T02:05:50.854Z,6.14
2018-10-09T02:06:50.847Z,6.16
2018-10-09T02:07:50.835Z,6.16
2018-10-09T02:08:50.833Z,6.08
2018-10-09T02:09:50.821Z,6.16
2018-10-09T02:10:50.819Z,6.16
2018-10-09T02:11:50.802Z,6.12
2018-10-09T02:12:50.801Z,6.11
2018-10-09T02:13:50.790Z,6.12
2018-10-09T02:14:50.800Z,6.08
2018-10-09T02:15:50.781Z,6.16
2018-10-09T02:16:50.773Z,6.24
2018-10-09T02:17:50.765Z,6.19
2018-10-09T02:18:50.759Z,6.17
2018-10-09T02:19:50.749Z,6.28
2018-10-09T02:20:50.743Z,6.27
2018-10-09T02:21:50.739Z,6.26
2018-10-09T02:22:50.732Z,6.27
2018-10-09T02:23:50.734Z,6.19
2018-10-09T02:24:50.717Z,6.22
2018-10-09T02:25:50.707Z,6.17
2018-10-09T02:26:50.699Z,6.27
2018-10-09T02:27:50.691Z,6.26
2018-10-09T02:28:50.689Z,6.20
2018-10-09T02:29:50.680Z,6.20
2018-10-09T02:30:50.673Z,6.17
2018-10-09T02:31:50.707Z,6.20
2018-10-09T02:32:50.652Z,6.22
2018-10-09T02:33:50.655Z,6.19
2018-10-09T02:34:50.638Z,6.11
2018-10-09T02:35:50.637Z,6.09
2018-10-09T02:36:50.634Z,6.11
2018-10-09T02:37:50.626Z,6.09
2018-10-09T02:38:50.618Z,6.02
2018-10-09T02:39:50.613Z,6.05
2018-10-09T02:40:50.606Z,5.98
2018-10-09T02:41:50.590Z,6.01
2018-10-09T02:42:51.500Z,5.99
2018-10-09T02:43:50.579Z,5.98
2018-10-09T02:44:50.571Z,5.99
2018-10-09T02:45:50.567Z,5.93
2018-10-09T02:46:50.563Z,6.02
2018-10-09T02:47:50.553Z,5.98
2018-10-09T02:48:50.550Z,5.98
2018-10-09T02:49:50.534Z,5.98
2018-10-09T02:50:50.530Z,5.93
2018-10-09T02:51:50.520Z,5.94
2018-10-09T02:52:50.520Z,6.01
2018-10-09T02:53:50.507Z,5.97
2018-10-09T02:54:50.504Z,5.97
2018-10-09T02:55:50.489Z,5.87
2018-10-09T02:56:50.490Z,5.91
2018-10-09T02:57:50.476Z,5.89
2018-10-09T02:58:50.478Z,5.83
2018-10-09T02:59:50.460Z,5.90
2018-10-09T03:00:50.463Z,5.87
2018-10-09T03:01:50.449Z,5.79
2018-10-09T03:02:50.448Z,5.76
2018-10-09T03:03:50.433Z,5.80
2018-10-09T03:04:50.427Z,5.79
2018-10-09T03:05:50.419Z,5.75
2018-10-09T03:06:50.414Z,5.82
2018-10-09T03:07:50.406Z,5.82
2018-10-09T03:08:50.399Z,5.84
2018-10-09T03:09:50.391Z,5.80
2018-10-09T03:10:50.379Z,5.80
2018-10-09T03:11:50.379Z,5.80
2018-10-09T03:12:50.371Z,5.79
2018-10-09T03:13:50.371Z,5.79
2018-10-09T03:14:50.358Z,5.76
2018-10-09T03:15:50.355Z,5.82
2018-10-09T03:16:50.351Z,5.82
2018-10-09T03:17:50.342Z,5.82
2018-10-09T03:18:50.322Z,5.79
2018-10-09T03:19:50.316Z,5.82
2018-10-09T03:20:50.424Z,5.73
2018-10-09T03:21:50.306Z,5.80
2018-10-09T03:22:50.295Z,5.80
2018-10-09T03:23:50.291Z,5.76
2018-10-09T03:24:50.292Z,5.82
2018-10-09T03:25:50.276Z,5.79
2018-10-09T03:26:50.273Z,5.83
2018-10-09T03:27:50.258Z,5.75
2018-10-09T03:28:50.253Z,5.73
2018-10-09T03:29:50.243Z,5.73
2018-10-09T03:30:50.243Z,5.65
2018-10-09T03:31:50.245Z,5.68
2018-10-09T03:32:50.220Z,5.73
2018-10-09T03:33:50.220Z,5.72
2018-10-09T03:34:50.207Z,5.71
2018-10-09T03:35:50.199Z,5.68
2018-10-09T03:36:50.204Z,5.75
2018-10-09T03:37:50.184Z,5.71
2018-10-09T03:38:50.190Z,5.59
2018-10-09T03:39:50.166Z,5.64
2018-10-09T03:40:50.161Z,5.64
2018-10-09T03:41:50.156Z,5.71
2018-10-09T03:42:50.153Z,5.71
2018-10-09T03:43:50.145Z,5.65
2018-10-09T03:44:50.136Z,5.64
2018-10-09T03:45:50.134Z,5.62
2018-10-09T03:46:50.121Z,5.61
2018-10-09T03:47:50.113Z,5.69
2018-10-09T03:48:50.105Z,5.64
2018-10-09T03:49:50.102Z,5.73
2018-10-09T03:50:50.089Z,5.75
2018-10-09T03:51:50.086Z,5.82
2018-10-09T03:52:50.076Z,5.83
2018-10-09T03:53:50.086Z,5.82
2018-10-09T03:54:50.059Z,5.80
2018-10-09T03:55:50.048Z,5.76
2018-10-09T03:56:50.044Z,5.71
2018-10-09T03:57:50.035Z,5.72
2018-10-09T03:58:50.034Z,5.59
2018-10-09T03:59:50.020Z,5.75
2018-10-09T04:00:50.022Z,5.66
2018-10-09T04:01:50.003Z,5.71
2018-10-09T04:02:50.001Z,5.64
2018-10-09T04:03:50.000Z,5.66
2018-10-09T04:04:49.982Z,5.64
2018-10-09T04:05:49.976Z,5.65
2018-10-09T04:06:49.967Z,5.66
2018-10-09T04:07:49.962Z,5.62
2018-10-09T04:08:49.988Z,5.64
2018-10-09T04:09:50.001Z,5.57
2018-10-09T04:10:49.934Z,5.66
2018-10-09T04:11:49.932Z,5.68
2018-10-09T04:12:50.091Z,5.59
2018-10-09T04:13:49.927Z,5.68
2018-10-09T04:14:49.925Z,5.65
2018-10-09T04:15:49.902Z,5.62
2018-10-09T04:16:49.891Z,5.66
2018-10-09T04:17:49.880Z,5.64
2018-10-09T04:18:49.883Z,5.59
2018-10-09T04:19:49.872Z,5.56
2018-10-09T04:20:49.863Z,5.57
2018-10-09T04:21:49.856Z,5.57
2018-10-09T04:22:49.846Z,5.64
2018-10-09T04:23:49.838Z,5.57
2018-10-09T04:24:49.833Z,5.71
2018-10-09T04:25:49.822Z,5.65
2018-10-09T04:26:49.819Z,5.68
2018-10-09T04:27:49.808Z,5.65
2018-10-09T04:28:49.804Z,5.59
2018-10-09T04:29:49.804Z,5.64
2018-10-09T04:30:49.790Z,5.68
2018-10-09T04:31:49.776Z,5.69
2018-10-09T04:32:49.769Z,5.71
2018-10-09T04:33:49.762Z,5.73
2018-10-09T04:34:49.767Z,5.71
2018-10-09T04:35:49.751Z,5.76
2018-10-09T04:36:49.751Z,5.76
2018-10-09T04:37:49.734Z,5.75
2018-10-09T04:38:49.721Z,5.71
2018-10-09T04:39:49.726Z,5.68
2018-10-09T04:40:49.706Z,5.65
2018-10-09T04:41:49.708Z,5.76
2018-10-09T04:42:49.693Z,5.71
2018-10-09T04:43:49.700Z,5.73
2018-10-09T04:44:49.679Z,5.68
2018-10-09T04:45:49.674Z,5.69
2018-10-09T04:46:49.668Z,5.75
2018-10-09T04:47:49.659Z,5.76
2018-10-09T04:48:49.651Z,5.82
2018-10-09T04:49:49.643Z,5.80
2018-10-09T04:50:49.635Z,5.84
2018-10-09T04:51:49.637Z,5.79
2018-10-09T04:52:49.627Z,5.79
2018-10-09T04:53:49.610Z,5.87
2018-10-09T04:54:49.610Z,5.79
2018-10-09T04:55:49.598Z,5.84
2018-10-09T04:56:49.598Z,5.76
2018-10-09T04:57:49.584Z,5.84
2018-10-09T04:58:49.576Z,5.76
2018-10-09T04:59:49.568Z,5.76
2018-10-09T05:00:49.632Z,5.80
2018-10-09T05:01:49.554Z,5.73
2018-10-09T05:02:49.543Z,5.79
2018-10-09T05:03:49.540Z,5.83
2018-10-09T05:04:49.545Z,5.69
2018-10-09T05:05:49.534Z,5.68
2018-10-09T05:06:49.515Z,5.71
2018-10-09T05:07:49.516Z,5.62
2018-10-09T05:08:49.495Z,5.65
2018-10-09T05:09:49.492Z,5.72
2018-10-09T05:10:49.490Z,5.68
2018-10-09T05:11:49.488Z,5.65
2018-10-09T05:12:49.479Z,5.64
2018-10-09T05:13:49.463Z,5.56
2018-10-09T05:14:49.456Z,5.65
2018-10-09T05:15:49.445Z,5.68
2018-10-09T05:16:49.442Z,5.69
2018-10-09T05:17:49.530Z,5.71
2018-10-09T05:18:50.104Z,5.69
2018-10-09T05:19:49.423Z,5.73
2018-10-09T05:20:49.410Z,5.71
2018-10-09T05:21:49.406Z,5.72
2018-10-09T05:22:49.394Z,5.65
2018-10-09T05:23:49.388Z,5.61
2018-10-09T05:24:49.380Z,5.66
2018-10-09T05:25:49.374Z,5.62
2018-10-09T05:26:49.368Z,5.59
2018-10-09T05:27:49.356Z,5.61
2018-10-09T05:28:49.353Z,5.62
2018-10-09T05:29:49.346Z,5.65
2018-10-09T05:30:49.336Z,5.59
2018-10-09T05:31:49.329Z,5.62
2018-10-09T05:32:49.318Z,5.65
2018-10-09T05:33:49.318Z,5.62
2018-10-09T05:34:49.306Z,5.61
2018-10-09T05:35:49.304Z,5.56
2018-10-09T05:36:49.286Z,5.61
2018-10-09T05:37:49.468Z,5.59
2018-10-09T05:38:49.275Z,5.62
2018-10-09T05:39:49.272Z,5.64
2018-10-09T05:40:49.263Z,5.66
2018-10-09T05:41:49.249Z,5.64
2018-10-09T05:42:49.245Z,5.62
2018-10-09T05:43:49.236Z,5.71
2018-10-09T05:44:49.233Z,5.69
2018-10-09T05:45:49.220Z,5.82
2018-10-09T05:46:49.214Z,5.75
2018-10-09T05:47:49.209Z,5.87
2018-10-09T05:48:49.204Z,5.83
2018-10-09T05:49:49.192Z,5.91
2018-10-09T05:50:49.181Z,5.97
2018-10-09T05:51:49.180Z,6.02
2018-10-09T05:52:49.166Z,5.98
2018-10-09T05:53:49.156Z,6.01
2018-10-09T05:54:49.153Z,6.04
2018-10-09T05:55:49.152Z,6.11
2018-10-09T05:56:49.133Z,6.02
2018-10-09T05:57:49.135Z,5.97
2018-10-09T05:58:49.121Z,6.01
2018-10-09T05:59:49.125Z,5.94
2018-10-09T06:00:49.113Z,6.09
2018-10-09T06:01:49.102Z,6.11
2018-10-09T06:02:49.096Z,6.14
2018-10-09T06:03:49.094Z,6.07
2018-10-09T06:04:49.081Z,6.16
2018-10-09T06:05:49.073Z,6.16
2018-10-09T06:06:49.061Z,6.27
2018-10-09T06:07:49.056Z,6.24
2018-10-09T06:08:49.062Z,6.28
2018-10-09T06:09:49.039Z,6.33
2018-10-09T06:10:49.034Z,6.33
2018-10-09T06:11:49.023Z,6.44
2018-10-09T06:12:49.019Z,6.42
2018-10-09T06:13:49.011Z,6.45
2018-10-09T06:14:49.007Z,6.51
2018-10-09T06:15:49.054Z,6.54
2018-10-09T06:16:48.993Z,6.59
2018-10-09T06:17:48.983Z,6.52
2018-10-09T06:18:48.975Z,6.56
2018-10-09T06:19:48.964Z,6.60
2018-10-09T06:20:48.958Z,6.74
2018-10-09T06:21:48.956Z,6.64
2018-10-09T06:22:48.950Z,6.70
2018-10-09T06:23:48.938Z,6.75
2018-10-09T06:24:48.934Z,6.77
2018-10-09T06:25:48.926Z,6.85
2018-10-09T06:26:48.917Z,6.95
2018-10-09T06:27:48.936Z,6.99
2018-10-09T06:28:48.902Z,6.96
2018-10-09T06:29:48.897Z,7.07
2018-10-09T06:30:48.885Z,7.14
2018-10-09T06:31:48.880Z,7.28
2018-10-09T06:32:48.875Z,7.32
2018-10-09T06:33:48.914Z,7.43
2018-10-09T06:34:48.875Z,7.51
2018-10-09T06:35:48.855Z,7.53
2018-10-09T06:36:48.846Z,7.72
2018-10-09T06:37:48.843Z,7.69
2018-10-09T06:38:48.834Z,7.82
2018-10-09T06:39:48.830Z,7.90
2018-10-09T06:40:48.820Z,8.05
2018-10-09T06:41:48.820Z,8.09
2018-10-09T06:42:48.875Z,8.15
2018-10-09T06:43:48.797Z,8.27
2018-10-09T06:44:48.789Z,8.30
2018-10-09T06:45:48.793Z,8.34
2018-10-09T06:46:48.782Z,8.48
2018-10-09T06:47:48.986Z,8.64
2018-10-09T06:48:48.769Z,8.60
2018-10-09T06:49:48.763Z,8.79
2018-10-09T06:50:48.761Z,8.76
2018-10-09T06:51:48.748Z,8.87
2018-10-09T06:52:48.743Z,8.94
2018-10-09T06:53:48.969Z,8.88
2018-10-09T06:54:48.730Z,9.02
2018-10-09T06:55:48.723Z,9.11
2018-10-09T06:56:48.713Z,9.13
2018-10-09T06:57:48.711Z,9.22
2018-10-09T06:58:48.722Z,9.26
2018-10-09T06:59:48.700Z,9.34
2018-10-09T07:00:48.699Z,9.40
2018-10-09T07:01:48.695Z,9.43
2018-10-09T07:02:48.678Z,9.41
2018-10-09T07:03:48.671Z,9.54
2018-10-09T07:04:48.665Z,9.51
2018-10-09T07:05:48.660Z,9.72
2018-10-09T07:06:48.659Z,9.76
2018-10-09T07:07:48.651Z,9.83
2018-10-09T07:08:48.645Z,9.95
2018-10-09T07:09:48.698Z,9.97
2018-10-09T07:10:48.629Z,10.02
2018-10-09T07:11:48.623Z,10.12
2018-10-09T07:12:48.617Z,10.17
2018-10-09T07:13:48.610Z,10.17
2018-10-09T07:14:48.607Z,10.23
2018-10-09T07:15:48.598Z,10.37
2018-10-09T07:16:48.621Z,10.37
2018-10-09T07:17:48.591Z,10.49
2018-10-09T07:18:48.589Z,10.51
2018-10-09T07:19:48.575Z,10.60
2018-10-09T07:20:48.576Z,10.69
2018-10-09T07:21:48.563Z,10.72
2018-10-09T07:22:48.602Z,10.86
2018-10-09T07:23:48.556Z,10.89
2018-10-09T07:24:48.549Z,10.96
2018-10-09T07:25:48.542Z,10.99
2018-10-09T07:26:48.543Z,11.10
2018-10-09T07:27:48.565Z,11.14
2018-10-09T07:28:48.527Z,11.12
2018-10-09T07:29:48.524Z,11.19
2018-10-09T07:30:48.514Z,11.29
2018-10-09T07:31:48.513Z,11.26
2018-10-09T07:32:48.506Z,11.40
2018-10-09T07:33:48.503Z,11.47
2018-10-09T07:34:48.495Z,11.57
2018-10-09T07:35:48.491Z,11.55
2018-10-09T07:36:48.484Z,11.70
2018-10-09T07:37:48.485Z,11.57
2018-10-09T07:38:48.476Z,11.65
2018-10-09T07:39:48.471Z,11.73
2018-10-09T07:40:48.473Z,11.73
2018-10-09T07:41:48.469Z,11.80
2018-10-09T07:42:48.463Z,11.84
2018-10-09T07:43:48.498Z,11.84
2018-10-09T07:44:48.443Z,11.84
2018-10-09T07:45:48.464Z,11.95
2018-10-09T07:46:48.436Z,12.04
2018-10-09T07:47:48.432Z,12.03
2018-10-09T07:48:48.425Z,12.13
2018-10-09T07:49:48.473Z,12.25
2018-10-09T07:50:48.418Z,12.22
2018-10-09T07:51:48.418Z,12.04
2018-10-09T07:52:48.435Z,12.12
2018-10-09T07:53:48.414Z,12.24
2018-10-09T07:54:48.401Z,12.37
2018-10-09T07:55:48.397Z,12.42
2018-10-09T07:56:48.389Z,12.45
2018-10-09T07:57:48.385Z,12.43
2018-10-09T07:58:48.448Z,12.42
2018-10-09T07:59:48.381Z,12.46
2018-10-09T08:00:48.374Z,12.27
2018-10-09T08:01:48.370Z,12.36
2018-10-09T08:02:48.366Z,12.37
2018-10-09T08:03:48.371Z,12.42
2018-10-09T08:04:48.394Z,12.57
2018-10-09T08:05:48.396Z,12.68
2018-10-09T08:06:48.349Z,12.67
2018-10-09T08:07:48.349Z,12.64
2018-10-09T08:08:48.338Z,12.72
2018-10-09T08:09:48.347Z,12.80
2018-10-09T08:10:48.345Z,12.97
2018-10-09T08:11:48.341Z,13.01
2018-10-09T08:12:48.329Z,13.11
2018-10-09T08:13:48.318Z,13.16
2018-10-09T08:14:48.318Z,13.13
2018-10-09T08:15:48.311Z,13.13
2018-10-09T08:16:48.315Z,13.16
2018-10-09T08:17:48.304Z,13.22
2018-10-09T08:18:48.302Z,13.31
2018-10-09T08:19:48.303Z,13.39
2018-10-09T08:20:48.302Z,13.54
2018-10-09T08:21:48.293Z,13.54
2018-10-09T08:22:48.309Z,13.62
2018-10-09T08:23:48.280Z,13.49
2018-10-09T08:24:48.277Z,13.53
2018-10-09T08:25:48.277Z,13.67
2018-10-09T08:26:48.277Z,13.72
2018-10-09T08:27:48.286Z,13.86
2018-10-09T08:28:48.267Z,13.99
2018-10-09T08:29:48.264Z,14.11
2018-10-09T08:30:48.257Z,14.22
2018-10-09T08:31:48.259Z,14.20
2018-10-09T08:32:48.266Z,14.44
2018-10-09T08:33:48.314Z,14.41
2018-10-09T08:34:48.247Z,14.58
2018-10-09T08:35:48.244Z,14.59
2018-10-09T08:36:48.238Z,14.40
2018-10-09T08:37:48.238Z,14.33
2018-10-09T08:38:48.232Z,14.28
2018-10-09T08:39:48.231Z,14.36
2018-10-09T08:40:48.229Z,14.47
2018-10-09T08:41:48.238Z,14.60
2018-10-09T08:42:48.222Z,14.77
2018-10-09T08:43:48.229Z,14.79
2018-10-09T08:44:48.217Z,14.72
2018-10-09T08:45:48.221Z,14.73
2018-10-09T08:46:48.217Z,14.86
2018-10-09T08:47:48.211Z,14.97
2018-10-09T08:48:48.203Z,14.92
2018-10-09T08:49:48.204Z,14.91
2018-10-09T08:50:48.194Z,14.89
2018-10-09T08:51:48.251Z,14.94
2018-10-09T08:52:48.203Z,14.96
2018-10-09T08:53:48.199Z,15.02
2018-10-09T08:54:48.189Z,15.03
2018-10-09T08:55:48.183Z,14.92
2018-10-09T08:56:48.177Z,14.92
2018-10-09T08:57:48.179Z,14.91
2018-10-09T08:58:49.080Z,14.86
2018-10-09T08:59:48.172Z,14.92
2018-10-09T09:00:48.171Z,14.94
2018-10-09T09:01:48.168Z,15.06
2018-10-09T09:02:48.163Z,14.94
2018-10-09T09:03:48.170Z,14.94
2018-10-09T09:04:48.171Z,14.86
2018-10-09T09:05:49.086Z,14.88
2018-10-09T09:06:48.149Z,14.85
2018-10-09T09:07:48.155Z,14.97
2018-10-09T09:08:48.147Z,14.89
2018-10-09T09:09:48.199Z,14.92
2018-10-09T09:10:48.145Z,14.88
2018-10-09T09:11:48.141Z,14.88
2018-10-09T09:12:48.137Z,14.88
2018-10-09T09:13:48.185Z,14.92
2018-10-09T09:14:48.147Z,14.88
2018-10-09T09:15:48.135Z,14.99
2018-10-09T09:16:48.125Z,15.03
2018-10-09T09:17:48.133Z,15.04
2018-10-09T09:18:48.123Z,15.09
2018-10-09T09:19:48.119Z,15.15
2018-10-09T09:20:48.187Z,15.09
2018-10-09T09:21:48.126Z,15.06
2018-10-09T09:22:48.113Z,15.10
2018-10-09T09:23:48.114Z,15.07
2018-10-09T09:24:48.107Z,15.04
2018-10-09T09:25:48.115Z,15.14
2018-10-09T09:26:48.177Z,15.18
2018-10-09T09:27:48.168Z,15.11
2018-10-09T09:28:48.097Z,15.25
2018-10-09T09:29:48.104Z,15.21
2018-10-09T09:30:48.090Z,15.22
2018-10-09T09:31:48.096Z,15.42
2018-10-09T09:32:48.088Z,15.42
2018-10-09T09:33:48.090Z,15.46
2018-10-09T09:34:48.082Z,15.42
2018-10-09T09:35:48.085Z,15.37
2018-10-09T09:36:48.081Z,15.39
2018-10-09T09:37:48.079Z,15.46
2018-10-09T09:38:48.671Z,15.59
2018-10-09T09:39:48.080Z,15.62
2018-10-09T09:40:48.066Z,15.68
2018-10-09T09:41:48.065Z,15.64
2018-10-09T09:42:48.068Z,15.80
2018-10-09T09:43:48.060Z,15.84
2018-10-09T09:44:48.060Z,15.82
2018-10-09T09:45:48.119Z,15.90
2018-10-09T09:46:48.054Z,15.83
2018-10-09T09:47:48.061Z,15.84
2018-10-09T09:48:48.051Z,15.94
2018-10-09T09:49:48.043Z,15.86
2018-10-09T09:50:48.047Z,16.00
2018-10-09T09:51:48.043Z,15.95
2018-10-09T09:52:48.038Z,15.95
2018-10-09T09:53:48.041Z,16.05
2018-10-09T09:54:48.041Z,16.01
2018-10-09T09:55:48.034Z,16.08
2018-10-09T09:56:48.030Z,16.15
2018-10-09T09:57:48.045Z,16.29
2018-10-09T09:58:48.256Z,16.39
2018-10-09T09:59:48.031Z,16.41
2018-10-09T10:00:48.028Z,16.46
2018-10-09T10:01:48.600Z,16.53
2018-10-09T10:02:48.025Z,16.58
2018-10-09T10:03:48.107Z,16.69
2018-10-09T10:04:48.015Z,16.75
2018-10-09T10:05:48.017Z,16.79
2018-10-09T10:06:48.014Z,16.78
2018-10-09T10:07:48.011Z,16.90
2018-10-09T10:08:48.017Z,16.81
2018-10-09T10:09:48.013Z,16.94
2018-10-09T10:10:48.003Z,16.99
2018-10-09T10:11:48.010Z,17.08
2018-10-09T10:12:48.009Z,17.14
2018-10-09T10:13:48.002Z,17.09
2018-10-09T10:14:48.002Z,17.29
2018-10-09T10:15:48.068Z,17.26
2018-10-09T10:16:47.992Z,17.34
2018-10-09T10:17:47.991Z,17.24
2018-10-09T10:18:47.995Z,17.39
2018-10-09T10:19:48.003Z,17.48
2018-10-09T10:20:47.990Z,17.65
2018-10-09T10:21:47.997Z,17.68
2018-10-09T10:22:47.990Z,17.74
2018-10-09T10:23:47.994Z,17.90
2018-10-09T10:24:47.985Z,17.89
2018-10-09T10:25:47.991Z,17.74
2018-10-09T10:26:47.983Z,17.74
2018-10-09T10:27:47.983Z,17.83
2018-10-09T10:28:47.983Z,17.82
2018-10-09T10:29:47.988Z,17.80
2018-10-09T10:30:47.979Z,17.87
2018-10-09T10:31:47.976Z,17.79
2018-10-09T10:32:47.977Z,17.74
2018-10-09T10:33:47.982Z,17.83
2018-10-09T10:34:48.682Z,17.85
2018-10-09T10:35:48.060Z,17.94
2018-10-09T10:36:48.078Z,18.00
2018-10-09T10:37:47.976Z,18.15
2018-10-09T10:38:47.982Z,18.15
2018-10-09T10:39:47.973Z,18.20
2018-10-09T10:40:47.975Z,18.40
2018-10-09T10:41:47.970Z,18.45
2018-10-09T10:42:47.966Z,18.52
2018-10-09T10:43:47.970Z,18.83
2018-10-09T10:44:47.970Z,18.75
2018-10-09T10:45:47.969Z,18.77
2018-10-09T10:46:47.991Z,18.83
2018-10-09T10:47:47.965Z,18.73
2018-10-09T10:48:47.977Z,18.80
2018-10-09T10:49:47.984Z,18.77
2018-10-09T10:50:47.963Z,18.83
2018-10-09T10:51:47.965Z,18.81
2018-10-09T10:52:47.974Z,18.95
2018-10-09T10:53:47.986Z,18.78
2018-10-09T10:54:48.692Z,18.74
2018-10-09T10:55:47.964Z,18.59
2018-10-09T10:56:47.961Z,18.55
2018-10-09T10:57:47.960Z,18.65
2018-10-09T10:58:48.050Z,18.56
2018-10-09T10:59:48.048Z,18.66
2018-10-09T11:00:47.989Z,18.71
2018-10-09T11:01:48.019Z,18.73
2018-10-09T11:02:47.995Z,18.78
2018-10-09T11:03:47.962Z,18.75
2018-10-09T11:04:48.562Z,18.86
2018-10-09T11:05:47.966Z,18.77
2018-10-09T11:06:47.963Z,18.73
2018-10-09T11:07:48.009Z,18.55
2018-10-09T11:08:47.967Z,18.70
2018-10-09T11:09:47.965Z,18.77
2018-10-09T11:10:47.956Z,18.88
2018-10-09T11:11:47.956Z,18.73
2018-10-09T11:12:47.962Z,18.53
2018-10-09T11:13:47.955Z,18.50
2018-10-09T11:14:48.005Z,18.60
2018-10-09T11:15:47.962Z,18.58
2018-10-09T11:16:47.958Z,18.63
2018-10-09T11:17:47.958Z,18.68
2018-10-09T11:18:48.697Z,18.59
2018-10-09T11:19:47.958Z,18.88
2018-10-09T11:20:47.971Z,18.59
2018-10-09T11:21:47.964Z,18.86
2018-10-09T11:22:47.971Z,18.80
2018-10-09T11:23:47.958Z,18.86
2018-10-09T11:24:47.960Z,18.89
2018-10-09T11:25:47.954Z,18.92
2018-10-09T11:26:47.959Z,18.92
2018-10-09T11:27:47.965Z,18.86
2018-10-09T11:28:47.954Z,19.00
2018-10-09T11:29:47.963Z,18.99
2018-10-09T11:30:47.954Z,19.09
2018-10-09T11:31:47.957Z,19.02
2018-10-09T11:32:47.954Z,19.07
2018-10-09T11:33:47.968Z,19.12
2018-10-09T11:34:47.957Z,19.15
2018-10-09T11:35:47.955Z,19.09
2018-10-09T11:36:47.964Z,19.00
2018-10-09T11:37:47.969Z,19.02
2018-10-09T11:38:47.956Z,19.09
2018-10-09T11:39:47.955Z,19.12
2018-10-09T11:40:47.959Z,19.04
2018-10-09T11:41:47.955Z,19.14
2018-10-09T11:42:48.009Z,19.12
2018-10-09T11:43:47.954Z,19.00
2018-10-09T11:44:47.959Z,19.02
2018-10-09T11:45:47.966Z,18.99
2018-10-09T11:46:47.958Z,19.08
2018-10-09T11:47:47.954Z,18.92
2018-10-09T11:48:47.958Z,18.90
2018-10-09T11:49:47.963Z,18.86
2018-10-09T11:50:47.958Z,18.96
2018-10-09T11:51:47.967Z,18.92
2018-10-09T11:52:47.961Z,18.98
2018-10-09T11:53:47.969Z,19.12
2018-10-09T11:54:48.641Z,19.07
2018-10-09T11:55:47.958Z,19.08
2018-10-09T11:56:47.956Z,18.96
2018-10-09T11:57:47.964Z,18.88
2018-10-09T11:58:48.013Z,18.99
2018-10-09T11:59:47.962Z,19.14
2018-10-09T12:00:47.956Z,18.89
2018-10-09T12:01:47.962Z,18.83
2018-10-09T12:02:48.018Z,18.89
2018-10-09T12:03:47.969Z,18.83
2018-10-09T12:04:47.965Z,18.78
2018-10-09T12:05:48.055Z,18.77
2018-10-09T12:06:47.987Z,18.88
2018-10-09T12:07:47.972Z,18.99
2018-10-09T12:08:48.718Z,19.07
2018-10-09T12:09:47.955Z,19.11
2018-10-09T12:10:47.962Z,19.21
2018-10-09T12:11:47.960Z,19.21
2018-10-09T12:12:48.014Z,19.08
2018-10-09T12:13:47.961Z,19.24
2018-10-09T12:14:47.966Z,19.27
2018-10-09T12:15:47.974Z,19.26
2018-10-09T12:16:47.960Z,19.33
2018-10-09T12:17:47.957Z,19.22
2018-10-09T12:18:47.961Z,19.12
2018-10-09T12:19:47.960Z,18.93
2018-10-09T12:20:47.959Z,19.00
2018-10-09T12:21:47.960Z,19.04
2018-10-09T12:22:47.973Z,19.08
2018-10-09T12:23:47.964Z,19.09
2018-10-09T12:24:47.959Z,19.29
2018-10-09T12:25:47.964Z,19.29
2018-10-09T12:26:47.961Z,19.37
2018-10-09T12:27:47.958Z,19.36
2018-10-09T12:28:47.957Z,19.22
2018-10-09T12:29:47.962Z,19.30
2018-10-09T12:30:47.968Z,19.21
2018-10-09T12:31:48.646Z,19.33
2018-10-09T12:32:48.017Z,19.40
2018-10-09T12:33:47.962Z,19.41
2018-10-09T12:34:47.961Z,19.44
2018-10-09T12:35:47.958Z,19.39
2018-10-09T12:36:47.960Z,19.24
2018-10-09T12:37:47.966Z,19.24
2018-10-09T12:38:47.963Z,19.21
2018-10-09T12:39:47.967Z,19.29
2018-10-09T12:40:47.967Z,19.30
2018-10-09T12:41:47.961Z,19.33
2018-10-09T12:42:47.959Z,19.29
2018-10-09T12:43:48.015Z,19.34
2018-10-09T12:44:47.959Z,19.39
2018-10-09T12:45:47.966Z,19.47
2018-10-09T12:46:48.736Z,19.52
2018-10-09T12:47:47.964Z,19.59
2018-10-09T12:48:47.964Z,19.51
2018-10-09T12:49:47.958Z,19.58
2018-10-09T12:50:47.973Z,19.52
2018-10-09T12:51:47.961Z,19.59
2018-10-09T12:52:47.987Z,19.58
2018-10-09T12:53:47.969Z,19.54
2018-10-09T12:54:47.965Z,19.63
2018-10-09T12:55:47.962Z,19.54
2018-10-09T12:56:47.968Z,19.49
2018-10-09T12:57:47.963Z,19.56
2018-10-09T12:58:48.001Z,19.64
2018-10-09T12:59:47.963Z,19.64
2018-10-09T13:00:47.965Z,19.59
2018-10-09T13:01:47.971Z,19.48
2018-10-09T13:02:48.176Z,19.56
2018-10-09T13:03:47.967Z,19.51
2018-10-09T13:04:47.968Z,19.39
2018-10-09T13:05:47.972Z,19.30
2018-10-09T13:06:47.975Z,19.33